createdAt,value
2018-08-19T00:01:58.833Z,99.90
2018-08-19T00:04:26.469Z,99.90
2018-08-19T00:06:54.023Z,99.90
2018-08-19T00:09:21.512Z,99.90
2018-08-19T00:11:48.453Z,99.90
2018-08-19T00:14:15.300Z,99.90
2018-08-19T00:16:42.447Z,99.90
2018-08-19T00:19:09.264Z,99.90
2018-08-19T00:21:36.030Z,99.90
2018-08-19T00:24:02.857Z,99.90
2018-08-19T00:26:29.615Z,99.90
2018-08-19T00:28:57.379Z,99.90
2018-08-19T00:31:26.371Z,99.90
2018-08-19T00:33:59.252Z,99.90
2018-08-19T00:36:26.314Z,99.90
2018-08-19T00:38:53.043Z,99.90
2018-08-19T00:41:19.786Z,99.90
2018-08-19T00:43:46.628Z,99.90
2018-08-19T00:46:13.448Z,99.90
2018-08-19T00:48:40.930Z,99.90
2018-08-19T00:51:07.670Z,99.90
2018-08-19T00:53:34.483Z,99.90
2018-08-19T00:56:01.969Z,99.90
2018-08-19T00:58:28.708Z,99.90
2018-08-19T01:00:55.654Z,99.90
2018-08-19T01:05:58.429Z,99.90
2018-08-19T01:08:25.910Z,99.90
2018-08-19T01:10:52.754Z,99.90
2018-08-19T01:13:19.493Z,99.90
2018-08-19T01:15:46.338Z,99.90
2018-08-19T01:18:13.076Z,99.90
2018-08-19T01:20:39.724Z,99.90
2018-08-19T01:23:06.456Z,99.90
2018-08-19T01:25:33.197Z,99.90
2018-08-19T01:27:59.938Z,99.90
2018-08-19T01:30:26.780Z,99.90
2018-08-19T01:32:53.524Z,99.90
2018-08-19T01:35:20.260Z,99.90
2018-08-19T01:37:46.984Z,99.90
2018-08-19T01:40:13.739Z,99.90
2018-08-19T01:42:40.479Z,99.90
2018-08-19T01:45:07.221Z,99.90
2018-08-19T01:47:33.959Z,99.90
2018-08-19T01:50:00.702Z,99.90
2018-08-19T01:52:27.421Z,99.90
2018-08-19T01:54:54.898Z,99.90
2018-08-19T01:57:21.601Z,99.90
2018-08-19T01:59:48.489Z,99.90
2018-08-19T02:02:15.326Z,99.90
2018-08-19T02:04:42.167Z,99.90
2018-08-19T02:07:09.009Z,99.90
2018-08-19T02:09:35.858Z,99.90
2018-08-19T02:12:02.696Z,99.90
2018-08-19T02:14:29.538Z,99.90
2018-08-19T02:16:56.381Z,99.90
2018-08-19T02:19:23.225Z,99.90
2018-08-19T02:21:49.966Z,99.90
2018-08-19T02:24:16.706Z,99.90
2018-08-19T02:26:43.525Z,99.90
2018-08-19T02:29:11.209Z,99.90
2018-08-19T02:31:38.156Z,99.90
2018-08-19T02:34:04.896Z,99.90
2018-08-19T02:36:31.635Z,99.90
2018-08-19T02:38:58.378Z,99.90
2018-08-19T02:41:25.233Z,99.90
2018-08-19T02:43:52.118Z,99.90
2018-08-19T02:46:18.906Z,99.90
2018-08-19T02:48:45.749Z,99.90
2018-08-19T02:51:12.897Z,99.90
2018-08-19T02:53:39.640Z,99.90
2018-08-19T02:56:06.378Z,99.90
2018-08-19T02:58:33.116Z,99.90
2018-08-19T03:00:59.858Z,99.90
2018-08-19T03:03:26.598Z,99.90
2018-08-19T03:05:54.159Z,99.90
2018-08-19T03:08:20.843Z,99.90
2018-08-19T03:10:47.539Z,99.90
2018-08-19T03:13:14.282Z,99.90
2018-08-19T03:15:41.118Z,99.90
2018-08-19T03:18:08.269Z,99.90
2018-08-19T03:20:34.989Z,99.90
2018-08-19T03:23:02.713Z,99.90
2018-08-19T03:25:29.513Z,99.90
2018-08-19T03:27:56.256Z,99.90
2018-08-19T03:30:24.946Z,99.90
2018-08-19T03:32:55.754Z,99.90
2018-08-19T03:35:22.722Z,99.90
2018-08-19T03:37:49.575Z,99.90
2018-08-19T03:40:16.412Z,99.90
2018-08-19T03:42:43.127Z,99.90
2018-08-19T03:45:10.600Z,99.90
2018-08-19T03:47:37.347Z,99.90
2018-08-19T03:50:04.168Z,99.90
2018-08-19T03:52:31.624Z,99.90
2018-08-19T03:54:58.984Z,99.90
2018-08-19T03:57:26.448Z,99.90
2018-08-19T03:59:53.168Z,99.90
2018-08-19T04:02:19.941Z,99.90
2018-08-19T04:04:46.788Z,99.90
2018-08-19T04:07:13.497Z,99.90
2018-08-19T04:09:40.957Z,99.90
2018-08-19T04:12:08.626Z,99.90
2018-08-19T04:14:35.360Z,99.90
2018-08-19T04:17:02.942Z,99.90
2018-08-19T04:19:29.781Z,99.90
2018-08-19T04:21:58.578Z,99.90
2018-08-19T04:24:27.052Z,99.90
2018-08-19T04:26:53.791Z,99.90
2018-08-19T04:29:20.513Z,99.90
2018-08-19T04:31:47.995Z,99.90
2018-08-19T04:34:14.708Z,99.90
2018-08-19T04:36:42.190Z,99.90
2018-08-19T04:39:08.927Z,99.90
2018-08-19T04:41:35.608Z,99.90
2018-08-19T04:44:02.515Z,99.90
2018-08-19T04:46:30.077Z,99.90
2018-08-19T04:48:56.789Z,99.90
2018-08-19T04:51:24.370Z,99.90
2018-08-19T04:53:51.087Z,99.90
2018-08-19T04:56:18.567Z,99.90
2018-08-19T04:58:45.411Z,99.90
2018-08-19T05:01:12.153Z,99.90
2018-08-19T05:03:38.869Z,99.90
2018-08-19T05:06:06.451Z,99.90
2018-08-19T05:08:33.216Z,99.90
2018-08-19T05:10:59.937Z,99.90
2018-08-19T05:13:26.777Z,99.90
2018-08-19T05:15:54.340Z,99.90
2018-08-19T05:18:21.009Z,99.90
2018-08-19T05:20:47.918Z,99.90
2018-08-19T05:23:14.658Z,99.90
2018-08-19T05:25:41.506Z,99.10
2018-08-19T05:28:10.406Z,92.60
2018-08-19T05:30:38.885Z,89.20
2018-08-19T05:33:05.716Z,88.30
2018-08-19T05:35:32.432Z,90.10
2018-08-19T05:38:00.043Z,86.50
2018-08-19T05:40:26.754Z,86.20
2018-08-19T05:42:54.316Z,85.80
2018-08-19T05:45:21.160Z,85.60
2018-08-19T05:47:49.197Z,83.50
2018-08-19T05:50:16.278Z,84.70
2018-08-19T05:52:42.987Z,88.00
2018-08-19T05:55:10.475Z,90.00
2018-08-19T05:57:37.216Z,89.90
2018-08-19T06:00:04.162Z,87.90
2018-08-19T06:02:30.920Z,85.40
2018-08-19T06:04:57.636Z,82.00
2018-08-19T06:07:24.324Z,82.20
2018-08-19T06:09:50.976Z,81.60
2018-08-19T06:12:17.809Z,77.90
2018-08-19T06:14:44.498Z,78.40
2018-08-19T06:17:11.199Z,78.60
2018-08-19T06:19:37.886Z,77.90
2018-08-19T06:22:04.803Z,74.80
2018-08-19T06:24:31.490Z,69.80
2018-08-19T06:26:58.198Z,68.90
2018-08-19T06:29:25.186Z,68.30
2018-08-19T06:31:52.742Z,65.20
2018-08-19T06:34:19.429Z,65.00
2018-08-19T06:36:46.848Z,63.50
2018-08-19T06:39:13.484Z,63.50
2018-08-19T06:41:40.185Z,65.40
2018-08-19T06:44:06.897Z,62.40
2018-08-19T06:46:34.468Z,60.20
2018-08-19T06:49:01.940Z,58.40
2018-08-19T06:51:28.644Z,58.40
2018-08-19T06:53:56.149Z,58.40
2018-08-19T06:56:22.918Z,58.40
2018-08-19T06:58:49.617Z,57.30
2018-08-19T07:01:16.482Z,56.00
2018-08-19T07:03:44.171Z,58.30
2018-08-19T07:06:10.869Z,58.30
2018-08-19T07:08:37.535Z,56.20
2018-08-19T07:11:04.266Z,57.50
2018-08-19T07:13:30.985Z,55.00
2018-08-19T07:15:57.792Z,57.40
2018-08-19T07:18:25.282Z,63.10
2018-08-19T07:20:52.056Z,63.30
2018-08-19T07:23:19.531Z,63.20
2018-08-19T07:25:46.321Z,63.10
2018-08-19T07:28:13.037Z,59.00
2018-08-19T07:30:40.472Z,62.30
2018-08-19T07:33:07.228Z,62.30
2018-08-19T07:35:34.632Z,58.00
2018-08-19T07:38:01.485Z,58.10
2018-08-19T07:40:28.197Z,57.40
2018-08-19T07:42:54.833Z,57.20
2018-08-19T07:45:21.740Z,56.90
2018-08-19T07:47:49.183Z,59.10
2018-08-19T07:50:15.827Z,59.20
2018-08-19T07:52:42.518Z,59.20
2018-08-19T07:55:09.294Z,58.60
2018-08-19T07:57:36.020Z,56.20
2018-08-19T08:00:02.743Z,54.80
2018-08-19T08:02:29.514Z,56.10
2018-08-19T08:04:56.202Z,55.60
2018-08-19T08:07:22.984Z,55.60
2018-08-19T08:09:49.748Z,56.20
2018-08-19T08:12:16.485Z,57.50
2018-08-19T08:14:43.208Z,57.20
2018-08-19T08:17:09.931Z,57.00
2018-08-19T08:19:36.826Z,56.30
2018-08-19T08:22:04.309Z,56.70
2018-08-19T08:24:31.002Z,56.70
2018-08-19T08:26:57.708Z,56.00
2018-08-19T08:29:24.455Z,58.50
2018-08-19T08:31:51.265Z,57.70
2018-08-19T08:34:17.938Z,55.40
2018-08-19T08:36:44.643Z,55.10
2018-08-19T08:39:11.498Z,53.80
2018-08-19T08:41:38.342Z,54.90
2018-08-19T08:44:05.084Z,55.10
2018-08-19T08:46:31.767Z,53.80
2018-08-19T08:48:58.449Z,53.20
2018-08-19T08:51:25.183Z,54.60
2018-08-19T08:53:51.965Z,53.60
2018-08-19T08:56:18.777Z,53.10
2018-08-19T08:58:46.354Z,53.30
2018-08-19T09:01:13.055Z,53.30
2018-08-19T09:03:39.747Z,56.60
2018-08-19T09:06:06.563Z,56.00
2018-08-19T09:08:33.424Z,56.40
2018-08-19T09:11:00.105Z,57.10
2018-08-19T09:13:26.889Z,59.60
2018-08-19T09:15:54.040Z,64.30
2018-08-19T09:18:20.984Z,67.60
2018-08-19T09:20:47.831Z,67.70
2018-08-19T09:23:14.705Z,69.10
2018-08-19T09:25:42.125Z,67.80
2018-08-19T09:28:09.073Z,67.70
2018-08-19T09:30:36.222Z,68.20
2018-08-19T09:33:03.699Z,66.90
2018-08-19T09:35:31.376Z,68.50
2018-08-19T09:37:58.248Z,68.50
2018-08-19T09:40:25.946Z,73.20
2018-08-19T09:42:52.979Z,73.10
2018-08-19T09:45:19.835Z,70.90
2018-08-19T09:47:46.787Z,68.90
2018-08-19T09:50:13.523Z,67.20
2018-08-19T09:52:40.436Z,67.20
2018-08-19T09:55:08.026Z,67.20
2018-08-19T09:57:34.991Z,67.00
2018-08-19T10:00:01.783Z,64.80
2018-08-19T10:02:29.229Z,61.90
2018-08-19T10:04:55.963Z,61.90
2018-08-19T10:07:22.851Z,64.90
2018-08-19T10:09:49.504Z,67.90
2018-08-19T10:12:16.193Z,69.30
2018-08-19T10:14:42.864Z,69.50
2018-08-19T10:17:09.744Z,70.70
2018-08-19T10:19:36.491Z,66.60
2018-08-19T10:22:03.479Z,66.70
2018-08-19T10:24:30.579Z,64.40
2018-08-19T10:26:58.045Z,63.00
2018-08-19T10:29:24.780Z,62.90
2018-08-19T10:31:51.572Z,65.80
2018-08-19T10:34:18.309Z,66.60
2018-08-19T10:36:45.807Z,64.30
2018-08-19T10:39:12.546Z,64.10
2018-08-19T10:41:39.139Z,65.60
2018-08-19T10:44:06.601Z,66.50
2018-08-19T10:46:33.319Z,66.70
2018-08-19T10:49:00.862Z,68.00
2018-08-19T10:51:27.663Z,68.00
2018-08-19T10:53:54.329Z,66.00
2018-08-19T10:56:21.111Z,66.90
2018-08-19T10:58:48.584Z,68.80
2018-08-19T11:01:15.340Z,69.60
2018-08-19T11:03:42.084Z,69.60
2018-08-19T11:06:08.792Z,69.30
2018-08-19T11:08:36.419Z,67.20
2018-08-19T11:11:03.118Z,67.20
2018-08-19T11:13:29.877Z,65.50
2018-08-19T11:15:57.117Z,64.80
2018-08-19T11:18:23.958Z,63.80
2018-08-19T11:20:50.802Z,65.10
2018-08-19T11:23:17.570Z,67.30
2018-08-19T11:25:44.240Z,69.10
2018-08-19T11:28:11.169Z,66.90
2018-08-19T11:30:37.871Z,67.70
2018-08-19T11:33:04.567Z,66.60
2018-08-19T11:35:32.058Z,68.10
2018-08-19T11:37:58.718Z,68.10
2018-08-19T11:40:25.468Z,67.00
2018-08-19T11:42:52.168Z,67.50
2018-08-19T11:45:18.885Z,70.10
2018-08-19T11:47:46.319Z,67.50
2018-08-19T11:50:28.067Z,67.50
2018-08-19T11:52:54.788Z,70.30
2018-08-19T11:55:22.203Z,72.00
2018-08-19T11:57:48.883Z,71.90
2018-08-19T12:00:16.370Z,68.90
2018-08-19T12:02:43.079Z,68.80
2018-08-19T12:05:10.661Z,70.10
2018-08-19T12:07:37.356Z,70.00
2018-08-19T12:10:04.079Z,71.50
2018-08-19T12:12:30.876Z,69.90
2018-08-19T12:14:57.621Z,72.00
2018-08-19T12:17:25.639Z,71.00
2018-08-19T12:19:53.222Z,68.90
2018-08-19T12:22:20.034Z,69.00
2018-08-19T12:24:46.711Z,69.10
2018-08-19T12:27:13.514Z,72.40
2018-08-19T12:29:40.457Z,70.00
2018-08-19T12:32:07.279Z,68.70
2018-08-19T12:34:34.008Z,69.00
2018-08-19T12:37:01.097Z,68.50
2018-08-19T12:39:28.523Z,70.50
2018-08-19T12:41:55.244Z,70.00
2018-08-19T12:44:22.084Z,70.90
2018-08-19T12:46:48.846Z,68.90
2018-08-19T12:49:15.535Z,68.50
2018-08-19T12:51:42.988Z,68.20
2018-08-19T12:54:09.640Z,69.00
2018-08-19T12:56:36.336Z,68.90
2018-08-19T12:59:03.192Z,68.00
2018-08-19T13:01:29.886Z,66.90
2018-08-19T13:03:58.619Z,68.40
2018-08-19T13:06:25.340Z,66.70
2018-08-19T13:08:52.057Z,67.70
2018-08-19T13:11:18.897Z,67.70
2018-08-19T13:13:45.589Z,67.30
2018-08-19T13:16:13.068Z,68.30
2018-08-19T13:18:40.552Z,67.70
2018-08-19T13:21:07.387Z,67.70
2018-08-19T13:23:34.065Z,68.40
2018-08-19T13:26:00.758Z,69.50
2018-08-19T13:28:27.563Z,71.30
2018-08-19T13:30:54.351Z,71.20
2018-08-19T13:33:21.144Z,72.00
2018-08-19T13:35:47.802Z,72.00
2018-08-19T13:38:15.346Z,72.10
2018-08-19T13:40:42.042Z,72.00
2018-08-19T13:43:08.740Z,70.90
2018-08-19T13:45:36.164Z,70.60
2018-08-19T13:48:02.836Z,70.50
2018-08-19T13:50:30.256Z,72.00
2018-08-19T13:52:57.343Z,72.00
2018-08-19T13:55:24.201Z,71.80
2018-08-19T13:57:50.899Z,73.00
2018-08-19T14:00:18.384Z,72.60
2018-08-19T14:02:45.949Z,72.90
2018-08-19T14:05:13.467Z,74.50
2018-08-19T14:07:40.553Z,74.50
2018-08-19T14:10:08.000Z,73.00
2018-08-19T14:12:36.402Z,72.30
2018-08-19T14:15:03.581Z,72.20
2018-08-19T14:17:30.306Z,72.50
2018-08-19T14:19:56.987Z,72.40
2018-08-19T14:22:23.786Z,73.90
2018-08-19T14:24:50.681Z,71.50
2018-08-19T14:27:17.534Z,72.80
2018-08-19T14:29:44.978Z,75.30
2018-08-19T14:32:11.782Z,75.30
2018-08-19T14:34:38.475Z,75.10
2018-08-19T14:37:05.934Z,76.40
2018-08-19T14:39:33.418Z,77.20
2018-08-19T14:42:00.104Z,77.20
2018-08-19T14:44:26.801Z,75.90
2018-08-19T14:46:53.548Z,73.60
2018-08-19T14:49:20.289Z,74.80
2018-08-19T14:51:46.977Z,74.40
2018-08-19T14:54:15.201Z,72.30
2018-08-19T14:56:41.943Z,72.30
2018-08-19T14:59:08.848Z,73.90
2018-08-19T15:01:36.532Z,73.10
2018-08-19T15:04:06.667Z,73.10
2018-08-19T15:06:33.615Z,72.30
2018-08-19T15:09:00.299Z,72.60
2018-08-19T15:11:26.980Z,71.90
2018-08-19T15:13:53.816Z,71.20
2018-08-19T15:16:20.573Z,71.20
2018-08-19T15:18:47.251Z,71.50
2018-08-19T15:21:14.126Z,72.20
2018-08-19T15:23:41.562Z,72.30
2018-08-19T15:26:08.510Z,72.30
2018-08-19T15:28:35.325Z,74.00
2018-08-19T15:31:02.044Z,73.00
2018-08-19T15:33:28.775Z,72.70
2018-08-19T15:35:55.474Z,71.90
2018-08-19T15:38:22.179Z,73.20
2018-08-19T15:40:48.960Z,73.20
2018-08-19T15:43:15.643Z,73.50
2018-08-19T15:45:42.355Z,73.60
2018-08-19T15:48:09.830Z,73.40
2018-08-19T15:50:36.567Z,73.30
2018-08-19T15:53:03.434Z,74.20
2018-08-19T15:55:33.445Z,73.90
2018-08-19T15:58:00.304Z,73.70
2018-08-19T16:00:26.954Z,73.30
2018-08-19T16:02:53.631Z,73.70
2018-08-19T16:05:21.515Z,74.00
2018-08-19T16:07:48.443Z,73.90
2018-08-19T16:10:15.879Z,73.70
2018-08-19T16:12:42.600Z,73.70
2018-08-19T16:15:09.318Z,75.10
2018-08-19T16:17:36.040Z,75.10
2018-08-19T16:20:02.799Z,76.00
2018-08-19T16:22:29.469Z,77.10
2018-08-19T16:24:56.145Z,77.50
2018-08-19T16:30:15.483Z,77.50
2018-08-19T16:32:42.707Z,77.60
2018-08-19T16:35:10.781Z,79.50
2018-08-19T16:37:37.622Z,78.70
2018-08-19T16:40:04.569Z,78.60
2018-08-19T16:42:31.510Z,79.20
2018-08-19T16:44:58.435Z,79.40
2018-08-19T16:47:25.174Z,80.30
2018-08-19T16:49:51.927Z,80.80
2018-08-19T16:52:18.635Z,80.70
2018-08-19T16:54:45.421Z,80.90
2018-08-19T16:57:12.626Z,81.10
2018-08-19T16:59:40.027Z,81.80
2018-08-19T17:02:06.875Z,81.90
2018-08-19T17:04:33.709Z,82.40
2018-08-19T17:07:00.658Z,82.20
2018-08-19T17:09:28.281Z,82.30
2018-08-19T17:11:55.776Z,82.80
2018-08-19T17:14:22.514Z,82.70
2018-08-19T17:16:49.225Z,83.80
2018-08-19T17:19:16.632Z,84.20
2018-08-19T17:21:43.350Z,84.10
2018-08-19T17:24:10.089Z,84.70
2018-08-19T17:26:37.030Z,85.30
2018-08-19T17:29:03.773Z,84.80
2018-08-19T17:31:30.619Z,85.70
2018-08-19T17:33:57.759Z,85.70
2018-08-19T17:36:24.611Z,85.70
2018-08-19T17:38:51.454Z,85.50
2018-08-19T17:41:18.526Z,85.60
2018-08-19T17:43:45.242Z,86.10
2018-08-19T17:46:12.074Z,86.20
2018-08-19T17:48:38.827Z,86.50
2018-08-19T17:51:05.980Z,86.70
2018-08-19T17:53:32.699Z,87.20
2018-08-19T17:56:00.148Z,87.40
2018-08-19T17:58:27.811Z,87.60
2018-08-19T18:00:55.448Z,88.00
2018-08-19T18:03:22.120Z,87.90
2018-08-19T18:05:48.864Z,88.30
2018-08-19T18:08:16.132Z,89.30
2018-08-19T18:10:42.908Z,90.10
2018-08-19T18:13:09.609Z,90.30
2018-08-19T18:15:36.349Z,90.50
2018-08-19T18:18:03.307Z,91.00
2018-08-19T18:20:30.138Z,91.40
2018-08-19T18:22:56.840Z,91.70
2018-08-19T18:25:24.659Z,92.60
2018-08-19T18:27:51.380Z,92.60
2018-08-19T18:30:18.124Z,92.80
2018-08-19T18:32:45.178Z,93.00
2018-08-19T18:35:12.745Z,93.80
2018-08-19T18:37:40.232Z,94.90
2018-08-19T18:40:07.746Z,95.40
2018-08-19T18:42:35.209Z,95.40
2018-08-19T18:45:02.457Z,96.30
2018-08-19T18:47:29.198Z,97.20
2018-08-19T18:49:56.057Z,99.00
2018-08-19T18:52:22.885Z,99.60
2018-08-19T18:54:49.627Z,99.90
2018-08-19T18:57:16.340Z,99.90
2018-08-19T18:59:43.922Z,99.90
2018-08-19T19:02:10.766Z,99.90
2018-08-19T19:04:37.612Z,99.90
2018-08-19T19:07:04.654Z,99.90
2018-08-19T19:09:32.639Z,99.90
2018-08-19T19:11:59.468Z,99.90
2018-08-19T19:14:26.620Z,99.90
2018-08-19T19:16:53.563Z,99.90
2018-08-19T19:19:21.121Z,99.90
2018-08-19T19:21:47.968Z,99.90
2018-08-19T19:24:14.806Z,99.90
2018-08-19T19:26:41.550Z,99.90
2018-08-19T19:29:08.493Z,99.90
2018-08-19T19:31:36.055Z,99.90
2018-08-19T19:34:03.714Z,99.90
2018-08-19T19:36:30.461Z,99.90
2018-08-19T19:38:58.014Z,99.90
2018-08-19T19:41:25.883Z,99.90
2018-08-19T19:43:53.238Z,99.90
2018-08-19T19:46:19.946Z,99.90
2018-08-19T19:48:46.821Z,99.90
2018-08-19T19:51:13.765Z,99.90
2018-08-19T19:53:40.505Z,99.90
2018-08-19T19:56:07.351Z,99.90
2018-08-19T19:58:34.091Z,99.90
2018-08-19T20:01:01.033Z,99.90
2018-08-19T20:03:27.881Z,99.90
2018-08-19T20:05:54.820Z,99.90
2018-08-19T20:08:21.528Z,99.90
2018-08-19T20:10:49.019Z,99.90
2018-08-19T20:13:15.862Z,99.90
2018-08-19T20:15:42.811Z,99.90
2018-08-19T20:18:10.985Z,99.90
2018-08-19T20:20:38.542Z,99.90
2018-08-19T20:23:05.384Z,99.90
2018-08-19T20:25:32.124Z,99.90
2018-08-19T20:27:58.869Z,99.90
2018-08-19T20:30:25.912Z,99.90
2018-08-19T20:32:52.797Z,99.90
2018-08-19T20:35:34.445Z,99.90
2018-08-19T20:38:01.189Z,99.90
2018-08-19T20:40:28.238Z,99.90
2018-08-19T20:42:54.974Z,99.90
2018-08-19T20:45:21.618Z,99.90
2018-08-19T20:47:48.281Z,99.90
2018-08-19T20:50:15.400Z,99.90
2018-08-19T20:52:42.171Z,99.90
2018-08-19T20:55:09.187Z,99.90
2018-08-19T20:57:36.138Z,99.90
2018-08-19T21:00:04.132Z,99.90
2018-08-19T21:02:31.663Z,99.90
2018-08-19T21:05:04.542Z,99.90
2018-08-19T21:07:31.668Z,99.90
2018-08-19T21:09:59.154Z,99.90
2018-08-19T21:12:25.892Z,99.90
2018-08-19T21:14:52.880Z,99.90
2018-08-19T21:17:19.888Z,99.90
2018-08-19T21:19:46.728Z,99.90
2018-08-19T21:22:13.572Z,99.90
2018-08-19T21:24:40.291Z,99.90
2018-08-19T21:27:08.256Z,99.90
2018-08-19T21:29:35.762Z,99.90
2018-08-19T21:32:02.469Z,99.90
2018-08-19T21:34:29.321Z,99.90
2018-08-19T21:36:56.268Z,99.90
2018-08-19T21:39:23.008Z,99.90
2018-08-19T21:41:49.852Z,99.90
2018-08-19T21:44:17.106Z,99.90
2018-08-19T21:46:43.842Z,99.90
2018-08-19T21:49:10.684Z,99.90
2018-08-19T21:51:38.552Z,99.90
2018-08-19T21:54:05.399Z,99.90
2018-08-19T21:56:32.073Z,99.90
2018-08-19T21:58:58.980Z,99.90
2018-08-19T22:01:25.823Z,99.90
2018-08-19T22:03:52.560Z,99.90
2018-08-19T22:06:19.508Z,99.90
2018-08-19T22:08:46.450Z,99.90
2018-08-19T22:11:13.273Z,99.90
2018-08-19T22:13:40.855Z,99.90
2018-08-19T22:16:07.697Z,99.90
2018-08-19T22:18:34.516Z,99.90
2018-08-19T22:21:01.383Z,99.90
2018-08-19T22:23:28.211Z,99.90
2018-08-19T22:25:55.682Z,99.90
2018-08-19T22:28:22.425Z,99.90
2018-08-19T22:30:49.263Z,99.90
2018-08-19T22:33:15.995Z,99.90
2018-08-19T22:35:43.461Z,99.90
2018-08-19T22:38:10.176Z,99.90
2018-08-19T22:40:37.763Z,99.90
2018-08-19T22:43:04.606Z,99.90
2018-08-19T22:45:31.344Z,99.90
2018-08-19T22:47:58.804Z,99.90
2018-08-19T22:50:25.750Z,99.90
2018-08-19T22:52:52.493Z,99.90
2018-08-19T22:55:19.230Z,99.90
2018-08-19T22:57:45.885Z,99.90
2018-08-19T23:00:13.629Z,99.90
2018-08-19T23:02:40.474Z,99.90
2018-08-19T23:05:07.214Z,99.90
2018-08-19T23:07:33.954Z,99.90
2018-08-19T23:10:00.800Z,99.90
2018-08-19T23:12:27.641Z,99.90
2018-08-19T23:15:06.465Z,99.90
2018-08-19T23:17:34.014Z,99.90
2018-08-19T23:20:00.762Z,99.90
2018-08-19T23:22:27.815Z,99.90
2018-08-19T23:24:54.861Z,99.90
2018-08-19T23:27:21.601Z,99.90
2018-08-19T23:29:48.442Z,99.90
2018-08-19T23:32:15.186Z,99.90
2018-08-19T23:34:42.023Z,99.90
2018-08-19T23:37:09.278Z,99.90
2018-08-19T23:39:36.016Z,99.90
2018-08-19T23:42:02.736Z,99.90
2018-08-19T23:44:29.706Z,99.90
2018-08-19T23:46:56.696Z,99.90
2018-08-19T23:49:23.397Z,99.90
2018-08-19T23:51:50.217Z,99.90
2018-08-19T23:54:17.687Z,99.90
2018-08-19T23:56:44.413Z,99.90
2018-08-19T23:59:11.886Z,99.90
